createdAt,value
2018-10-11T00:02:40.044Z,12.33
2018-10-11T00:07:42.187Z,12.31
2018-10-11T00:12:44.380Z,12.24
2018-10-11T00:17:46.581Z,12.29
2018-10-11T00:22:48.735Z,12.20
2018-10-11T00:27:50.876Z,12.17
2018-10-11T00:32:53.019Z,12.18
2018-10-11T00:37:55.243Z,12.21
2018-10-11T00:42:57.403Z,12.31
2018-10-11T00:47:59.563Z,12.33
2018-10-11T00:53:01.713Z,12.37
2018-10-11T00:58:03.951Z,12.37
2018-10-11T01:03:06.136Z,12.43
2018-10-11T01:08:08.312Z,12.44
2018-10-11T01:13:10.461Z,12.48
2018-10-11T01:18:12.632Z,12.48
2018-10-11T01:23:14.795Z,12.22
2018-10-11T01:28:17.034Z,11.78
2018-10-11T01:33:19.213Z,11.46
2018-10-11T01:38:21.465Z,11.19
2018-10-11T01:43:23.627Z,10.94
2018-10-11T01:48:25.913Z,10.82
2018-10-11T01:53:28.161Z,10.71
2018-10-11T01:58:30.327Z,10.95
2018-10-11T02:03:32.539Z,11.15
2018-10-11T02:08:34.703Z,11.24
2018-10-11T02:13:38.087Z,11.32
2018-10-11T02:18:40.365Z,11.47
2018-10-11T02:23:42.514Z,11.54
2018-10-11T02:28:44.672Z,11.51
2018-10-11T02:33:46.838Z,11.45
2018-10-11T02:38:49.100Z,11.45
2018-10-11T02:43:51.267Z,11.47
2018-10-11T02:48:53.539Z,11.46
2018-10-11T02:53:55.699Z,11.36
2018-10-11T02:59:09.370Z,11.31
2018-10-11T03:04:11.561Z,11.31
2018-10-11T03:09:13.748Z,11.29
2018-10-11T03:14:15.899Z,11.30
2018-10-11T03:19:18.136Z,11.35
2018-10-11T03:24:20.324Z,11.32
2018-10-11T03:29:22.419Z,11.25
2018-10-11T03:34:25.387Z,11.20
2018-10-11T03:39:28.339Z,11.22
2018-10-11T03:44:30.508Z,11.20
2018-10-11T03:49:32.636Z,11.16
2018-10-11T03:54:34.768Z,11.14
2018-10-11T03:59:36.931Z,11.15
2018-10-11T04:04:39.077Z,11.21
2018-10-11T04:09:41.393Z,11.31
2018-10-11T04:14:43.554Z,11.47
2018-10-11T04:19:46.372Z,11.52
2018-10-11T04:24:49.923Z,11.61
2018-10-11T04:29:52.079Z,11.71
2018-10-11T04:34:54.306Z,11.79
2018-10-11T04:39:56.735Z,11.88
2018-10-11T04:44:59.162Z,11.91
2018-10-11T04:50:01.921Z,11.98
2018-10-11T04:55:04.446Z,12.02
2018-10-11T05:00:06.667Z,11.93
2018-10-11T05:05:08.912Z,11.90
2018-10-11T05:10:11.099Z,11.94
2018-10-11T05:15:13.485Z,11.95
2018-10-11T05:20:15.735Z,11.98
2018-10-11T05:25:17.907Z,12.02
2018-10-11T05:30:20.098Z,11.96
2018-10-11T05:35:22.263Z,11.97
2018-10-11T05:40:24.447Z,11.96
2018-10-11T05:45:26.789Z,11.98
2018-10-11T05:50:28.965Z,11.94
2018-10-11T05:55:31.167Z,12.01
2018-10-11T06:00:33.530Z,12.16
2018-10-11T06:05:35.861Z,12.13
2018-10-11T06:10:39.555Z,12.14
2018-10-11T06:15:42.247Z,12.23
2018-10-11T06:20:44.433Z,12.42
2018-10-11T06:25:46.624Z,12.39
2018-10-11T06:30:48.799Z,12.47
2018-10-11T06:35:51.153Z,12.46
2018-10-11T06:40:53.330Z,12.61
2018-10-11T06:45:55.497Z,12.63
2018-10-11T06:50:57.665Z,12.70
2018-10-11T06:55:59.857Z,12.82
2018-10-11T07:01:02.058Z,12.99
2018-10-11T07:06:04.225Z,13.19
2018-10-11T07:11:06.496Z,13.33
2018-10-11T07:16:08.765Z,13.42
2018-10-11T07:21:11.390Z,13.65
2018-10-11T07:26:13.553Z,13.75
2018-10-11T07:31:15.706Z,13.85
2018-10-11T07:36:17.881Z,14.06
2018-10-11T07:41:20.444Z,14.19
2018-10-11T07:46:22.617Z,14.28
2018-10-11T07:51:24.791Z,14.46
2018-10-11T07:56:27.147Z,14.51
2018-10-11T08:01:30.194Z,14.74
2018-10-11T08:06:32.374Z,14.76
2018-10-11T08:11:34.679Z,14.90
2018-10-11T08:16:36.756Z,15.20
2018-10-11T08:21:40.071Z,15.45
2018-10-11T08:26:42.965Z,15.67
2018-10-11T08:31:45.222Z,15.83
2018-10-11T08:36:47.367Z,16.21
2018-10-11T08:41:49.526Z,16.35
2018-10-11T08:46:51.702Z,16.63
2018-10-11T08:51:53.931Z,16.86
2018-10-11T08:56:56.171Z,16.99
2018-10-11T09:01:58.338Z,17.04
2018-10-11T09:07:00.949Z,16.99
2018-10-11T09:12:03.231Z,17.03
2018-10-11T09:17:05.434Z,17.30
2018-10-11T09:22:07.615Z,17.45
2018-10-11T09:27:09.818Z,17.64
2018-10-11T09:32:12.131Z,17.81
2018-10-11T09:37:14.288Z,17.95
2018-10-11T09:42:16.835Z,18.20
2018-10-11T09:47:19.015Z,18.34
2018-10-11T09:52:21.438Z,18.63
2018-10-11T09:57:24.906Z,18.83
2018-10-11T10:02:27.721Z,18.82
2018-10-11T10:07:29.893Z,19.08
2018-10-11T10:12:32.073Z,19.34
2018-10-11T10:17:34.794Z,19.29
2018-10-11T10:22:37.101Z,19.41
2018-10-11T10:27:39.407Z,19.61
2018-10-11T10:32:41.590Z,19.90
2018-10-11T10:37:43.748Z,20.39
2018-10-11T10:42:45.922Z,20.75
2018-10-11T10:47:48.082Z,21.14
2018-10-11T10:52:50.246Z,21.17
2018-10-11T10:57:52.398Z,21.48
2018-10-11T11:02:54.579Z,21.59
2018-10-11T11:07:57.070Z,21.67
2018-10-11T11:12:59.251Z,21.91
2018-10-11T11:18:01.430Z,21.95
2018-10-11T11:23:03.710Z,22.17
2018-10-11T11:28:05.900Z,22.32
2018-10-11T11:33:08.269Z,22.40
2018-10-11T11:38:10.697Z,22.49
2018-10-11T11:43:12.914Z,22.57
2018-10-11T11:48:15.083Z,22.71
2018-10-11T11:53:17.990Z,22.75
2018-10-11T11:58:21.656Z,22.87
2018-10-11T12:03:23.873Z,22.95
2018-10-11T12:08:26.808Z,23.08
2018-10-11T12:13:29.161Z,23.19
2018-10-11T12:18:31.329Z,23.31
2018-10-11T12:23:34.096Z,23.58
2018-10-11T12:28:36.335Z,23.82
2018-10-11T12:33:38.451Z,23.87
2018-10-11T12:38:40.621Z,23.97
2018-10-11T12:43:42.778Z,24.32
2018-10-11T12:48:45.032Z,24.38
2018-10-11T12:53:48.531Z,24.53
2018-10-11T12:58:49.444Z,24.69
2018-10-11T13:03:51.585Z,24.95
2018-10-11T13:08:53.751Z,25.10
2018-10-11T13:13:55.902Z,25.13
2018-10-11T13:18:58.119Z,25.19
2018-10-11T13:24:00.288Z,25.23
2018-10-11T13:29:02.481Z,25.36
2018-10-11T13:34:04.908Z,25.59
2018-10-11T13:39:08.003Z,25.63
2018-10-11T13:44:10.270Z,25.71
2018-10-11T13:49:12.421Z,25.54
2018-10-11T13:54:17.735Z,25.52
2018-10-11T13:59:19.895Z,25.55
2018-10-11T14:04:22.227Z,25.50
2018-10-11T14:09:24.382Z,25.49
2018-10-11T14:14:26.549Z,25.41
2018-10-11T14:19:28.734Z,25.37
2018-10-11T14:24:30.902Z,25.36
2018-10-11T14:29:33.096Z,25.24
2018-10-11T14:34:35.411Z,25.31
2018-10-11T14:39:37.612Z,25.47
2018-10-11T14:44:39.879Z,25.33
2018-10-11T14:49:42.134Z,25.30
2018-10-11T14:54:44.313Z,25.17
2018-10-11T14:59:46.499Z,24.85
2018-10-11T15:04:48.669Z,24.63
2018-10-11T15:09:50.830Z,24.52
2018-10-11T15:14:53.207Z,24.38
2018-10-11T15:19:55.389Z,24.49
2018-10-11T15:24:57.554Z,24.19
2018-10-11T15:30:00.657Z,24.13
2018-10-11T15:35:02.901Z,23.83
2018-10-11T15:40:05.053Z,23.58
2018-10-11T15:45:08.013Z,23.32
2018-10-11T15:50:10.310Z,23.00
2018-10-11T15:55:13.224Z,22.80
2018-10-11T16:00:15.440Z,22.38
2018-10-11T16:05:17.603Z,22.00
2018-10-11T16:10:19.778Z,21.79
2018-10-11T16:15:21.983Z,21.59
2018-10-11T16:20:24.161Z,21.27
2018-10-11T16:25:26.345Z,20.97
2018-10-11T16:30:28.517Z,20.69
2018-10-11T16:35:30.699Z,20.54
2018-10-11T16:40:32.957Z,20.18
2018-10-11T16:45:35.127Z,20.01
2018-10-11T16:50:37.323Z,19.86
2018-10-11T16:55:39.490Z,19.60
2018-10-11T17:00:41.649Z,19.43
2018-10-11T17:05:43.793Z,19.23
2018-10-11T17:10:45.940Z,19.10
2018-10-11T17:15:48.121Z,18.90
2018-10-11T17:20:50.342Z,18.79
2018-10-11T17:25:52.504Z,18.61
2018-10-11T17:30:54.665Z,18.49
2018-10-11T17:35:56.850Z,18.35
2018-10-11T17:40:59.050Z,18.24
2018-10-11T17:46:01.231Z,18.14
2018-10-11T17:51:03.416Z,18.09
2018-10-11T17:56:05.594Z,18.01
2018-10-11T18:01:07.773Z,17.97
2018-10-11T18:06:09.950Z,17.88
2018-10-11T18:11:12.130Z,17.69
2018-10-11T18:16:14.293Z,17.47
2018-10-11T18:21:16.653Z,17.42
2018-10-11T18:26:18.838Z,17.53
2018-10-11T18:31:21.654Z,17.52
2018-10-11T18:36:23.841Z,17.48
2018-10-11T18:41:26.015Z,17.43
2018-10-11T18:46:28.199Z,17.36
2018-10-11T18:51:30.351Z,17.09
2018-10-11T18:56:32.525Z,16.99
2018-10-11T19:01:34.679Z,16.87
2018-10-11T19:06:36.916Z,16.80
2018-10-11T19:11:39.335Z,16.74
2018-10-11T19:16:41.521Z,16.75
2018-10-11T19:21:43.706Z,16.71
2018-10-11T19:26:45.870Z,16.66
2018-10-11T19:31:48.048Z,16.69
2018-10-11T19:36:50.201Z,16.74
2018-10-11T19:41:52.377Z,16.82
2018-10-11T19:46:54.548Z,16.91
2018-10-11T19:51:56.718Z,16.90
2018-10-11T19:56:58.971Z,16.95
2018-10-11T20:02:01.163Z,16.73
2018-10-11T20:07:03.338Z,16.64
2018-10-11T20:12:05.519Z,16.50
2018-10-11T20:17:07.720Z,16.34
2018-10-11T20:22:10.638Z,16.33
2018-10-11T20:27:12.807Z,16.45
2018-10-11T20:32:15.124Z,16.54
2018-10-11T20:37:17.378Z,16.52
2018-10-11T20:42:19.583Z,16.51
2018-10-11T20:47:21.741Z,16.51
2018-10-11T20:52:23.920Z,16.34
2018-10-11T20:57:26.684Z,15.91
2018-10-11T21:02:28.842Z,15.99
2018-10-11T21:07:31.041Z,16.05
2018-10-11T21:12:33.295Z,16.02
2018-10-11T21:17:35.556Z,15.95
2018-10-11T21:22:37.841Z,15.83
2018-10-11T21:27:40.002Z,15.76
2018-10-11T21:32:42.186Z,15.75
2018-10-11T21:37:44.395Z,15.91
2018-10-11T21:42:46.579Z,16.01
2018-10-11T21:47:48.755Z,16.03
2018-10-11T21:52:50.975Z,16.13
2018-10-11T21:57:53.150Z,16.09
2018-10-11T22:02:55.301Z,16.16
2018-10-11T22:07:57.494Z,16.15
2018-10-11T22:12:59.666Z,16.15
2018-10-11T22:18:01.851Z,16.07
2018-10-11T22:23:04.078Z,16.00
2018-10-11T22:28:06.259Z,15.99
2018-10-11T22:33:08.426Z,15.90
2018-10-11T22:38:10.614Z,15.96
2018-10-11T22:43:12.796Z,16.14
2018-10-11T22:48:14.971Z,16.14
2018-10-11T22:53:17.117Z,16.10
2018-10-11T22:58:19.291Z,16.05
2018-10-11T23:03:21.475Z,15.85
2018-10-11T23:08:23.693Z,15.56
2018-10-11T23:13:25.890Z,15.29
2018-10-11T23:18:28.070Z,15.18
2018-10-11T23:23:30.261Z,15.12
2018-10-11T23:28:32.458Z,15.19
2018-10-11T23:33:34.609Z,15.24
2018-10-11T23:38:36.782Z,15.37
2018-10-11T23:43:39.117Z,15.35
2018-10-11T23:48:41.294Z,15.19
2018-10-11T23:53:43.446Z,15.10
2018-10-11T23:58:45.663Z,15.00
